Monday, April 24, 2017, 2:51 PM MDT
Back to Local

KSLC, Salt Lake City International Airport

Location: Salt Lake City, UT, United States Lat: 40.783
Local Time: 2:51 PM MDT (20:51 GMT) Lon: -111.967
Time Zone: US/Mountain Elev: 4225 ft

Show me the last for .
Show Decoded

2017-04-24 14:07 METAR KSLC 242007Z 31012KT 270V330 10SM -RA FEW025 BKN043 BKN060 OVC130 10/04
                 A2972 RMK AO2 WSHFT 1947 P0000 T01000039 =
2017-04-24 13:54 METAR KSLC 241954Z 30013KT 10SM -RA FEW025 BKN042 OVC060 10/04 A2972 RMK AO2
                 SLP041 VIRGA SW-NW P0002 T01000044 =
2017-04-24 12:54 METAR KSLC 241854Z 34011KT 10SM -RA FEW038 BKN055 OVC070 11/07 A2970 RMK AO2
                 RAE28B49 SLP034 P0000 T01110072 =
2017-04-24 11:54 METAR KSLC 241754Z 13006KT 10SM -RA BKN049 BKN060 OVC100 12/06 A2968 RMK AO2
                 SLP024 VIRGA NW-N AND DSNT SW AND W P0002 60003 T01170056 10133 20106 58002 =
2017-04-24 10:54 METAR KSLC 241654Z 27005KT 10SM -RA BKN050 BKN060 OVC085 12/04 A2969 =
2017-04-24 09:54 METAR KSLC 241554Z 33005KT 10SM -RA FEW050 BKN065 OVC080 13/04 A2969 RMK AO2
                 RAB42 SLP027 VIRGA ALQDS P0000 T01280039 =
2017-04-24 08:54 METAR KSLC 241454Z 18011G15KT 10SM SCT080 BKN095 OVC140 12/04 A2969 RMK AO2
                 SLP024 VIRGA ALQDS T01170044 56007 =
2017-04-24 07:54 METAR KSLC 241354Z 15008KT 10SM FEW090 SCT120 BKN150 OVC200 11/04 A2969 RMK AO2
                 SLP023 VIRGA S-NW AND DSNT NE T01110044 =
2017-04-24 06:54 METAR KSLC 241254Z 14013KT 10SM BKN140 BKN180 11/04 A2970 RMK AO2 SLP025
                 T01110039 =
2017-04-24 05:54 METAR KSLC 241154Z COR 14009KT 10SM FEW080 BKN130 11/04 A2971 =
2017-04-24 04:54 METAR KSLC 241054Z 13009KT 10SM FEW080 BKN130 11/03 A2972 RMK AO2 SLP032
                 T01060033 =
2017-04-24 03:54 METAR KSLC 240954Z 12007KT 10SM FEW080 SCT130 09/03 A2974 RMK AO2 SLP037
                 T00940033 =
2017-04-24 02:54 METAR KSLC 240854Z 13008KT 10SM FEW080 SCT130 10/03 A2975 RMK AO2 SLP044
                 T01000028 58009 =
2017-04-24 01:54 METAR KSLC 240754Z 14007KT 10SM FEW080 SCT130 11/02 A2978 RMK AO2 SLP053
                 T01060022 =
2017-04-24 00:54 METAR KSLC 240654Z 14008KT 10SM FEW080 FEW130 11/04 A2980 RMK AO2 SLP058
                 T01110044 401940089 =
2017-04-23 23:54 METAR KSLC 240554Z 13011KT 10SM FEW130 12/04 A2979 RMK AO2 SLP053 T01170044
                 10172 20111 58003 =
2017-04-23 22:54 METAR KSLC 240454Z 13008KT 10SM CLR 12/03 A2981 RMK AO2 SLP064 T01170033 =
2017-04-23 21:54 METAR KSLC 240354Z 16007KT 10SM FEW120 12/03 A2981 RMK AO2 SLP065 T01220028 =
2017-04-23 20:54 METAR KSLC 240254Z 14006KT 10SM FEW060 FEW100 FEW140 14/03 A2980 RMK AO2 SLP059
                 T01390033 58003 =
2017-04-23 19:54 METAR KSLC 240154Z 36007KT 10SM FEW060 SCT080 BKN140 BKN200 16/04 A2981 RMK AO2
                 SLP063 VIRGA DSNT NE AND S SH DSNT NE-S T01560039 =
2017-04-23 18:54 METAR KSLC 240054Z 31016KT 10SM SCT120 16/02 A2983 RMK AO2 SLP074 VIRGA SW-N AND
                 DSNT SE SH DSNT ALQDS CB DSNT N AND SE T01610017 =
2017-04-23 17:54 METAR KSLC 232354Z 32018KT 10SM FEW075 BKN095 BKN110 BKN140 OVC180 17/01 A2981
                 RMK AO2 PK WND 32027/2315 SLP062 VIRGA ALQDS SH DSNT ALQDS ACSL NW-N CB DSNT S
                 AND NW T01720006 10194 20172 53006 =
2017-04-23 16:54 METAR KSLC 232254Z 31014G19KT 10SM FEW120 SCT130 BKN180 OVC220 18/03 A2977 RMK
                 AO2 SLP047 VIRGA DSNT SE SH DSNT N-NE AND SE-SW CB DSNT W-NW T01830033 =
2017-04-23 15:54 METAR KSLC 232154Z 33013KT 10SM FEW110 BKN130 BKN170 OVC200 19/01 A2977 RMK AO2
                 WSHFT 2100 SLP047 VIRGA DSNT NW-E AND S-SW T01890006 =
2017-04-23 15:19 METAR KSLC 232119Z 35012KT 10SM FEW100 BKN130 OVC170 18/02 A2977 RMK AO2 WSHFT
                 2100 VIRGA DSNT N AND E T01830022 =
2017-04-23 14:54 METAR KSLC 232054Z 30009KT 10SM FEW090 BKN120 OVC170 17/04 A2979 =

Support USWX by starting your Amazon purchase here.